sensor_id;sensor_type;location;lat;lon;timestamp;pressure;altitude;pressure_sealevel;temperature;humidity
20228;BME280;12195;55.790;37.572;2023-04-28T00:01:51;99184.75;;;14.65;57.84
20228;BME280;12195;55.790;37.572;2023-04-28T00:04:24;99180.67;;;14.61;57.94
20228;BME280;12195;55.790;37.572;2023-04-28T00:06:57;99184.41;;;14.59;58.15
20228;BME280;12195;55.790;37.572;2023-04-28T00:09:29;99179.12;;;14.59;58.19
20228;BME280;12195;55.790;37.572;2023-04-28T00:12:02;99183.67;;;14.57;58.39
20228;BME280;12195;55.790;37.572;2023-04-28T00:14:34;99170.69;;;14.65;57.93
20228;BME280;12195;55.790;37.572;2023-04-28T00:17:06;99170.69;;;14.65;57.93
20228;BME280;12195;55.790;37.572;2023-04-28T00:19:40;99171.55;;;14.65;57.89
20228;BME280;12195;55.790;37.572;2023-04-28T00:22:12;99172.39;;;14.66;57.89
20228;BME280;12195;55.790;37.572;2023-04-28T00:24:45;99173.22;;;14.66;57.95
20228;BME280;12195;55.790;37.572;2023-04-28T00:27:18;99165.17;;;14.68;57.69
20228;BME280;12195;55.790;37.572;2023-04-28T00:29:50;99165.41;;;14.65;57.90
20228;BME280;12195;55.790;37.572;2023-04-28T00:32:23;99171.42;;;14.67;57.97
20228;BME280;12195;55.790;37.572;2023-04-28T00:34:56;99159.30;;;14.64;58.10
20228;BME280;12195;55.790;37.572;2023-04-28T00:37:30;99141.89;;;14.51;58.09
20228;BME280;12195;55.790;37.572;2023-04-28T00:40:04;99157.25;;;14.57;58.31
20228;BME280;12195;55.790;37.572;2023-04-28T00:42:37;99171.42;;;14.56;58.47
20228;BME280;12195;55.790;37.572;2023-04-28T00:45:09;99165.29;;;14.55;58.54
20228;BME280;12195;55.790;37.572;2023-04-28T00:47:41;99160.27;;;14.52;58.60
20228;BME280;12195;55.790;37.572;2023-04-28T00:50:15;99162.06;;;14.52;58.65
20228;BME280;12195;55.790;37.572;2023-04-28T00:52:48;99157.52;;;14.54;58.69
20228;BME280;12195;55.790;37.572;2023-04-28T00:55:21;99160.27;;;14.52;58.70
20228;BME280;12195;55.790;37.572;2023-04-28T00:57:56;99162.91;;;14.52;58.66
20228;BME280;12195;55.790;37.572;2023-04-28T01:00:29;99152.70;;;14.48;58.77
20228;BME280;12195;55.790;37.572;2023-04-28T01:03:01;99152.70;;;14.48;58.77
20228;BME280;12195;55.790;37.572;2023-04-28T01:05:36;99158.22;;;14.45;59.06
20228;BME280;12195;55.790;37.572;2023-04-28T01:08:08;99149.59;;;14.43;59.15
20228;BME280;12195;55.790;37.572;2023-04-28T01:10:44;99156.66;;;14.42;59.11
20228;BME280;12195;55.790;37.572;2023-04-28T01:13:18;99139.28;;;14.29;59.17
20228;BME280;12195;55.790;37.572;2023-04-28T01:15:51;99140.48;;;14.25;59.46
20228;BME280;12195;55.790;37.572;2023-04-28T01:18:25;99140.48;;;14.25;59.46
20228;BME280;12195;55.790;37.572;2023-04-28T01:20:57;99161.97;;;14.31;60.02
20228;BME280;12195;55.790;37.572;2023-04-28T01:23:31;99161.97;;;14.31;60.02
20228;BME280;12195;55.790;37.572;2023-04-28T01:26:03;99157.51;;;14.32;60.02
20228;BME280;12195;55.790;37.572;2023-04-28T01:28:35;99157.51;;;14.32;60.02
20228;BME280;12195;55.790;37.572;2023-04-28T01:31:08;99144.06;;;14.24;60.19
20228;BME280;12195;55.790;37.572;2023-04-28T01:33:40;99150.20;;;14.24;60.07
20228;BME280;12195;55.790;37.572;2023-04-28T01:36:13;99157.63;;;14.30;60.07
20228;BME280;12195;55.790;37.572;2023-04-28T01:38:45;99158.95;;;14.36;59.63
20228;BME280;12195;55.790;37.572;2023-04-28T01:41:18;99158.95;;;14.36;59.63
20228;BME280;12195;55.790;37.572;2023-04-28T01:43:50;99167.61;;;14.38;59.75
20228;BME280;12195;55.790;37.572;2023-04-28T01:46:22;99164.85;;;14.39;59.66
20228;BME280;12195;55.790;37.572;2023-04-28T01:48:55;99163.77;;;14.42;59.55
20228;BME280;12195;55.790;37.572;2023-04-28T01:51:27;99174.06;;;14.45;59.53
20228;BME280;12195;55.790;37.572;2023-04-28T01:54:00;99175.77;;;14.46;59.46
20228;BME280;12195;55.790;37.572;2023-04-28T01:56:32;99178.14;;;14.49;59.37
20228;BME280;12195;55.790;37.572;2023-04-28T01:59:05;99178.30;;;14.47;59.45
20228;BME280;12195;55.790;37.572;2023-04-28T02:01:37;99174.06;;;14.45;59.56
20228;BME280;12195;55.790;37.572;2023-04-28T02:04:10;99172.39;;;14.44;59.37
20228;BME280;12195;55.790;37.572;2023-04-28T02:06:43;99168.20;;;14.41;59.54
20228;BME280;12195;55.790;37.572;2023-04-28T02:09:16;99142.39;;;14.23;59.72
20228;BME280;12195;55.790;37.572;2023-04-28T02:11:48;99159.42;;;14.41;59.75
20228;BME280;12195;55.790;37.572;2023-04-28T02:14:21;99166.64;;;14.39;59.74
20228;BME280;12195;55.790;37.572;2023-04-28T02:16:54;99162.80;;;14.43;59.77
20228;BME280;12195;55.790;37.572;2023-04-28T02:19:26;99153.20;;;14.42;59.78
20228;BME280;12195;55.790;37.572;2023-04-28T02:21:59;99160.16;;;14.43;59.90
20228;BME280;12195;55.790;37.572;2023-04-28T02:24:35;99158.95;;;14.47;59.85
20228;BME280;12195;55.790;37.572;2023-04-28T02:27:08;99156.08;;;14.50;59.75
20228;BME280;12195;55.790;37.572;2023-04-28T02:29:41;99165.17;;;14.57;59.52
20228;BME280;12195;55.790;37.572;2023-04-28T02:32:13;99141.16;;;14.60;59.36
20228;BME280;12195;55.790;37.572;2023-04-28T02:34:45;99147.87;;;14.64;59.48
20228;BME280;12195;55.790;37.572;2023-04-28T02:37:17;99146.31;;;14.72;59.05
20228;BME280;12195;55.790;37.572;2023-04-28T02:39:51;99146.31;;;14.72;59.05
20228;BME280;12195;55.790;37.572;2023-04-28T02:42:24;99161.90;;;14.75;59.12
20228;BME280;12195;55.790;37.572;2023-04-28T02:44:56;99152.30;;;14.74;59.11
20228;BME280;12195;55.790;37.572;2023-04-28T02:47:30;99168.89;;;14.76;59.09
20228;BME280;12195;55.790;37.572;2023-04-28T02:50:03;99149.31;;;14.68;58.97
20228;BME280;12195;55.790;37.572;2023-04-28T02:52:35;99176.44;;;14.81;58.95
20228;BME280;12195;55.790;37.572;2023-04-28T02:55:08;99177.05;;;14.84;58.83
20228;BME280;12195;55.790;37.572;2023-04-28T02:57:40;99145.11;;;14.76;58.91
20228;BME280;12195;55.790;37.572;2023-04-28T03:00:13;99175.56;;;14.91;58.72
20228;BME280;12195;55.790;37.572;2023-04-28T03:02:47;99173.27;;;14.98;58.83
20228;BME280;12195;55.790;37.572;2023-04-28T03:05:20;99173.27;;;14.98;58.83
20228;BME280;12195;55.790;37.572;2023-04-28T03:07:52;99187.92;;;15.02;58.49
20228;BME280;12195;55.790;37.572;2023-04-28T03:10:24;99198.14;;;15.06;58.46
20228;BME280;12195;55.790;37.572;2023-04-28T03:12:56;99181.06;;;15.10;58.44
20228;BME280;12195;55.790;37.572;2023-04-28T03:15:28;99177.78;;;15.18;58.41
20228;BME280;12195;55.790;37.572;2023-04-28T03:18:01;99177.78;;;15.18;58.41
20228;BME280;12195;55.790;37.572;2023-04-28T03:20:33;99181.03;;;15.21;58.06
20228;BME280;12195;55.790;37.572;2023-04-28T03:23:05;99179.66;;;15.27;58.17
20228;BME280;12195;55.790;37.572;2023-04-28T03:25:37;99169.81;;;15.29;58.06
20228;BME280;12195;55.790;37.572;2023-04-28T03:28:10;99178.33;;;15.32;58.57
20228;BME280;12195;55.790;37.572;2023-04-28T03:30:42;99178.11;;;15.35;58.19
20228;BME280;12195;55.790;37.572;2023-04-28T03:33:14;99175.22;;;15.38;57.94
20228;BME280;12195;55.790;37.572;2023-04-28T03:35:47;99187.11;;;15.44;57.79
20228;BME280;12195;55.790;37.572;2023-04-28T03:38:19;99197.42;;;15.47;57.77
20228;BME280;12195;55.790;37.572;2023-04-28T03:40:53;99192.98;;;15.47;57.83
20228;BME280;12195;55.790;37.572;2023-04-28T03:43:36;99201.77;;;15.48;57.69
20228;BME280;12195;55.790;37.572;2023-04-28T03:46:10;99199.24;;;15.46;57.74
20228;BME280;12195;55.790;37.572;2023-04-28T03:48:42;99201.61;;;15.49;57.82
20228;BME280;12195;55.790;37.572;2023-04-28T03:51:16;99199.82;;;15.50;57.75
20228;BME280;12195;55.790;37.572;2023-04-28T03:53:48;99204.75;;;15.54;57.70
20228;BME280;12195;55.790;37.572;2023-04-28T03:56:20;99196.16;;;15.62;57.03
20228;BME280;12195;55.790;37.572;2023-04-28T03:58:53;99196.16;;;15.62;57.03
20228;BME280;12195;55.790;37.572;2023-04-28T04:01:25;99206.50;;;15.85;56.92
20228;BME280;12195;55.790;37.572;2023-04-28T04:03:57;99210.64;;;15.99;56.58
20228;BME280;12195;55.790;37.572;2023-04-28T04:06:31;99208.75;;;16.11;56.10
20228;BME280;12195;55.790;37.572;2023-04-28T04:09:04;99215.78;;;16.21;55.92
20228;BME280;12195;55.790;37.572;2023-04-28T04:11:36;99195.62;;;16.30;55.50
20228;BME280;12195;55.790;37.572;2023-04-28T04:14:09;99204.86;;;16.35;55.10
20228;BME280;12195;55.790;37.572;2023-04-28T04:16:41;99215.67;;;16.43;55.17
20228;BME280;12195;55.790;37.572;2023-04-28T04:19:14;99213.58;;;16.47;55.08
20228;BME280;12195;55.790;37.572;2023-04-28T04:21:47;99210.42;;;16.53;54.87
20228;BME280;12195;55.790;37.572;2023-04-28T04:24:19;99210.98;;;16.56;54.72
20228;BME280;12195;55.790;37.572;2023-04-28T04:26:51;99224.66;;;16.61;54.52
20228;BME280;12195;55.790;37.572;2023-04-28T04:29:25;99219.67;;;16.68;54.40
20228;BME280;12195;55.790;37.572;2023-04-28T04:31:58;99219.16;;;16.74;54.31
20228;BME280;12195;55.790;37.572;2023-04-28T04:34:31;99222.23;;;16.79;54.28
20228;BME280;12195;55.790;37.572;2023-04-28T04:37:04;99220.86;;;16.84;54.24
20228;BME280;12195;55.790;37.572;2023-04-28T04:39:38;99218.08;;;16.95;54.20
20228;BME280;12195;55.790;37.572;2023-04-28T04:42:11;99216.57;;;17.02;54.02
20228;BME280;12195;55.790;37.572;2023-04-28T04:44:46;99214.08;;;17.10;53.88
20228;BME280;12195;55.790;37.572;2023-04-28T04:47:24;99226.81;;;17.16;53.53
20228;BME280;12195;55.790;37.572;2023-04-28T04:49:56;99221.21;;;17.19;53.52
20228;BME280;12195;55.790;37.572;2023-04-28T04:52:30;99230.16;;;17.18;53.51
20228;BME280;12195;55.790;37.572;2023-04-28T04:55:04;99230.42;;;17.15;53.49
20228;BME280;12195;55.790;37.572;2023-04-28T04:57:37;99236.97;;;17.11;53.86
20228;BME280;12195;55.790;37.572;2023-04-28T05:00:11;99232.09;;;17.07;53.84
20228;BME280;12195;55.790;37.572;2023-04-28T05:02:44;99234.62;;;17.08;53.73
20228;BME280;12195;55.790;37.572;2023-04-28T05:05:18;99246.20;;;17.17;54.80
20228;BME280;12195;55.790;37.572;2023-04-28T05:08:06;99236.63;;;17.35;55.17
20228;BME280;12195;55.790;37.572;2023-04-28T05:10:38;99233.33;;;17.61;54.50
20228;BME280;12195;55.790;37.572;2023-04-28T05:13:13;99235.11;;;17.89;53.21
20228;BME280;12195;55.790;37.572;2023-04-28T05:15:45;99242.66;;;18.13;52.10
20228;BME280;12195;55.790;37.572;2023-04-28T05:18:26;99248.06;;;18.30;51.28
20228;BME280;12195;55.790;37.572;2023-04-28T05:20:58;99245.41;;;18.40;51.10
20228;BME280;12195;55.790;37.572;2023-04-28T05:23:31;99248.65;;;18.43;50.73
20228;BME280;12195;55.790;37.572;2023-04-28T05:26:03;99261.77;;;18.45;50.60
20228;BME280;12195;55.790;37.572;2023-04-28T05:28:39;99251.00;;;18.46;50.72
20228;BME280;12195;55.790;37.572;2023-04-28T05:31:11;99257.30;;;18.45;50.79
20228;BME280;12195;55.790;37.572;2023-04-28T05:33:44;99260.83;;;18.36;50.81
20228;BME280;12195;55.790;37.572;2023-04-28T05:36:16;99258.29;;;18.25;51.08
20228;BME280;12195;55.790;37.572;2023-04-28T05:38:49;99267.70;;;18.10;52.35
20228;BME280;12195;55.790;37.572;2023-04-28T05:41:23;99270.50;;;17.99;54.29
20228;BME280;12195;55.790;37.572;2023-04-28T05:43:56;99266.59;;;17.94;53.98
20228;BME280;12195;55.790;37.572;2023-04-28T05:46:29;99259.60;;;17.93;54.03
20228;BME280;12195;55.790;37.572;2023-04-28T05:49:02;99264.06;;;17.92;54.10
20228;BME280;12195;55.790;37.572;2023-04-28T05:51:39;99259.33;;;17.86;54.06
20228;BME280;12195;55.790;37.572;2023-04-28T05:54:11;99258.34;;;17.78;54.12
20228;BME280;12195;55.790;37.572;2023-04-28T05:56:45;99268.00;;;17.69;54.91
20228;BME280;12195;55.790;37.572;2023-04-28T05:59:17;99266.03;;;17.90;54.36
20228;BME280;12195;55.790;37.572;2023-04-28T06:01:50;99265.61;;;17.66;54.17
20228;BME280;12195;55.790;37.572;2023-04-28T06:04:23;99256.52;;;17.59;54.88
20228;BME280;12195;55.790;37.572;2023-04-28T06:06:56;99267.13;;;17.59;54.54
20228;BME280;12195;55.790;37.572;2023-04-28T06:09:29;99272.17;;;17.62;54.53
20228;BME280;12195;55.790;37.572;2023-04-28T06:12:02;99266.02;;;17.62;54.68
20228;BME280;12195;55.790;37.572;2023-04-28T06:14:36;99281.12;;;17.61;54.69
20228;BME280;12195;55.790;37.572;2023-04-28T06:17:08;99268.53;;;17.63;54.49
20228;BME280;12195;55.790;37.572;2023-04-28T06:19:40;99270.20;;;17.64;54.67
20228;BME280;12195;55.790;37.572;2023-04-28T06:22:13;99269.94;;;17.67;54.75
20228;BME280;12195;55.790;37.572;2023-04-28T06:24:45;99258.47;;;17.76;54.52
20228;BME280;12195;55.790;37.572;2023-04-28T06:27:19;99258.89;;;18.00;54.51
20228;BME280;12195;55.790;37.572;2023-04-28T06:29:52;99255.66;;;18.35;53.29
20228;BME280;12195;55.790;37.572;2023-04-28T06:32:24;99256.41;;;18.64;52.52
20228;BME280;12195;55.790;37.572;2023-04-28T06:34:57;99253.93;;;18.89;51.89
20228;BME280;12195;55.790;37.572;2023-04-28T06:37:31;99258.85;;;19.11;51.25
20228;BME280;12195;55.790;37.572;2023-04-28T06:40:04;99254.75;;;19.26;50.59
20228;BME280;12195;55.790;37.572;2023-04-28T06:42:37;99243.20;;;19.35;50.73
20228;BME280;12195;55.790;37.572;2023-04-28T06:45:13;99256.84;;;19.67;49.71
20228;BME280;12195;55.790;37.572;2023-04-28T06:47:49;99252.73;;;19.55;50.24
20228;BME280;12195;55.790;37.572;2023-04-28T06:50:22;99249.38;;;19.71;50.25
20228;BME280;12195;55.790;37.572;2023-04-28T06:52:55;99247.02;;;19.85;49.94
20228;BME280;12195;55.790;37.572;2023-04-28T06:55:30;99242.12;;;19.98;49.64
20228;BME280;12195;55.790;37.572;2023-04-28T06:58:03;99251.29;;;20.13;49.28
20228;BME280;12195;55.790;37.572;2023-04-28T07:00:36;99253.35;;;20.19;49.04
20228;BME280;12195;55.790;37.572;2023-04-28T07:03:08;99253.08;;;20.30;48.68
20228;BME280;12195;55.790;37.572;2023-04-28T07:05:41;99245.03;;;20.48;48.49
20228;BME280;12195;55.790;37.572;2023-04-28T07:08:13;99244.09;;;20.57;48.58
20228;BME280;12195;55.790;37.572;2023-04-28T07:10:47;99244.18;;;20.73;48.21
20228;BME280;12195;55.790;37.572;2023-04-28T07:13:19;99249.09;;;20.86;47.75
20228;BME280;12195;55.790;37.572;2023-04-28T07:15:51;99243.98;;;20.92;48.07
20228;BME280;12195;55.790;37.572;2023-04-28T07:18:24;99257.69;;;20.97;47.74
20228;BME280;12195;55.790;37.572;2023-04-28T07:20:56;99245.03;;;21.07;47.61
20228;BME280;12195;55.790;37.572;2023-04-28T07:23:29;99257.72;;;21.05;47.80
20228;BME280;12195;55.790;37.572;2023-04-28T07:26:01;99244.69;;;21.02;47.54
20228;BME280;12195;55.790;37.572;2023-04-28T07:28:34;99255.90;;;21.06;47.72
20228;BME280;12195;55.790;37.572;2023-04-28T07:31:07;99260.70;;;21.02;48.09
20228;BME280;12195;55.790;37.572;2023-04-28T07:33:39;99261.52;;;20.95;48.27
20228;BME280;12195;55.790;37.572;2023-04-28T07:36:12;99255.91;;;20.80;48.47
20228;BME280;12195;55.790;37.572;2023-04-28T07:38:44;99271.77;;;20.56;49.06
20228;BME280;12195;55.790;37.572;2023-04-28T07:41:17;99256.38;;;20.24;50.00
20228;BME280;12195;55.790;37.572;2023-04-28T07:43:49;99263.15;;;20.01;50.51
20228;BME280;12195;55.790;37.572;2023-04-28T07:46:21;99262.86;;;19.87;51.26
20228;BME280;12195;55.790;37.572;2023-04-28T07:48:54;99261.05;;;19.87;51.68
20228;BME280;12195;55.790;37.572;2023-04-28T07:51:28;99275.03;;;19.89;51.90
20228;BME280;12195;55.790;37.572;2023-04-28T07:54:01;99271.45;;;19.98;51.94
20228;BME280;12195;55.790;37.572;2023-04-28T07:56:33;99269.33;;;20.02;52.64
20228;BME280;12195;55.790;37.572;2023-04-28T07:59:05;99267.73;;;20.09;52.36
20228;BME280;12195;55.790;37.572;2023-04-28T08:01:37;99269.35;;;20.19;51.82
20228;BME280;12195;55.790;37.572;2023-04-28T08:04:10;99271.20;;;20.44;51.21
20228;BME280;12195;55.790;37.572;2023-04-28T08:06:43;99261.86;;;20.74;50.58
20228;BME280;12195;55.790;37.572;2023-04-28T08:09:15;99269.56;;;21.03;49.40
20228;BME280;12195;55.790;37.572;2023-04-28T08:11:49;99259.53;;;21.46;48.61
20228;BME280;12195;55.790;37.572;2023-04-28T08:14:21;99258.14;;;21.84;47.67
20228;BME280;12195;55.790;37.572;2023-04-28T08:16:53;99258.65;;;22.11;46.72
20228;BME280;12195;55.790;37.572;2023-04-28T08:19:26;99252.97;;;22.06;46.50
20228;BME280;12195;55.790;37.572;2023-04-28T08:21:58;99256.44;;;21.83;46.85
20228;BME280;12195;55.790;37.572;2023-04-28T08:24:32;99262.36;;;21.45;47.72
20228;BME280;12195;55.790;37.572;2023-04-28T08:27:05;99266.04;;;21.02;49.08
20228;BME280;12195;55.790;37.572;2023-04-28T08:29:37;99269.10;;;20.56;50.30
20228;BME280;12195;55.790;37.572;2023-04-28T08:32:10;99259.73;;;20.09;51.88
20228;BME280;12195;55.790;37.572;2023-04-28T08:34:42;99271.91;;;19.59;54.82
20228;BME280;12195;55.790;37.572;2023-04-28T08:37:14;99273.69;;;19.14;57.07
20228;BME280;12195;55.790;37.572;2023-04-28T08:39:46;99256.69;;;18.61;59.89
20228;BME280;12195;55.790;37.572;2023-04-28T08:42:19;99268.66;;;18.19;62.12
20228;BME280;12195;55.790;37.572;2023-04-28T08:44:51;99273.56;;;17.85;63.49
20228;BME280;12195;55.790;37.572;2023-04-28T08:47:36;99280.27;;;17.61;64.42
20228;BME280;12195;55.790;37.572;2023-04-28T08:50:11;99279.22;;;17.33;64.33
20228;BME280;12195;55.790;37.572;2023-04-28T08:52:45;99290.50;;;17.16;65.40
20228;BME280;12195;55.790;37.572;2023-04-28T08:55:18;99284.98;;;16.99;66.48
20228;BME280;12195;55.790;37.572;2023-04-28T08:57:51;99285.37;;;16.94;68.08
20228;BME280;12195;55.790;37.572;2023-04-28T09:00:25;99288.62;;;16.98;67.97
20228;BME280;12195;55.790;37.572;2023-04-28T09:02:57;99285.02;;;17.08;66.94
20228;BME280;12195;55.790;37.572;2023-04-28T09:05:29;99286.73;;;17.19;66.83
20228;BME280;12195;55.790;37.572;2023-04-28T09:08:02;99293.88;;;17.28;66.80
20228;BME280;12195;55.790;37.572;2023-04-28T09:10:34;99289.41;;;17.38;66.31
20228;BME280;12195;55.790;37.572;2023-04-28T09:13:07;99295.57;;;17.38;65.73
20228;BME280;12195;55.790;37.572;2023-04-28T09:15:39;99293.77;;;17.39;67.08
20228;BME280;12195;55.790;37.572;2023-04-28T09:18:13;99291.64;;;17.33;67.35
20228;BME280;12195;55.790;37.572;2023-04-28T09:20:45;99288.35;;;17.50;67.98
20228;BME280;12195;55.790;37.572;2023-04-28T09:23:19;99284.21;;;17.76;67.00
20228;BME280;12195;55.790;37.572;2023-04-28T09:26:00;99279.87;;;18.03;66.09
20228;BME280;12195;55.790;37.572;2023-04-28T09:28:34;99276.92;;;18.35;63.97
20228;BME280;12195;55.790;37.572;2023-04-28T09:31:23;99272.56;;;18.89;63.99
20228;BME280;12195;55.790;37.572;2023-04-28T09:33:59;99269.09;;;19.60;62.48
20228;BME280;12195;55.790;37.572;2023-04-28T09:36:31;99275.93;;;20.33;58.34
20228;BME280;12195;55.790;37.572;2023-04-28T09:39:04;99270.11;;;20.89;56.74
20228;BME280;12195;55.790;37.572;2023-04-28T09:41:41;99274.94;;;21.11;54.97
20228;BME280;12195;55.790;37.572;2023-04-28T09:44:16;99273.12;;;21.19;54.18
20228;BME280;12195;55.790;37.572;2023-04-28T09:46:49;99268.02;;;21.42;53.93
20228;BME280;12195;55.790;37.572;2023-04-28T09:49:21;99266.40;;;21.57;52.71
20228;BME280;12195;55.790;37.572;2023-04-28T09:51:54;99265.30;;;21.75;53.67
20228;BME280;12195;55.790;37.572;2023-04-28T09:54:28;99263.97;;;21.79;51.84
20228;BME280;12195;55.790;37.572;2023-04-28T09:57:02;99276.08;;;21.58;52.01
20228;BME280;12195;55.790;37.572;2023-04-28T09:59:35;99277.98;;;21.24;53.72
20228;BME280;12195;55.790;37.572;2023-04-28T10:02:08;99281.02;;;20.95;54.67
20228;BME280;12195;55.790;37.572;2023-04-28T10:04:44;99277.36;;;20.71;55.46
20228;BME280;12195;55.790;37.572;2023-04-28T10:07:18;99274.89;;;20.51;55.24
20228;BME280;12195;55.790;37.572;2023-04-28T10:09:51;99270.17;;;20.20;55.72
20228;BME280;12195;55.790;37.572;2023-04-28T10:12:24;99281.73;;;19.93;55.71
20228;BME280;12195;55.790;37.572;2023-04-28T10:14:57;99281.65;;;19.68;57.19
20228;BME280;12195;55.790;37.572;2023-04-28T10:17:33;99281.66;;;19.50;58.33
20228;BME280;12195;55.790;37.572;2023-04-28T10:20:07;99276.53;;;19.39;58.22
20228;BME280;12195;55.790;37.572;2023-04-28T10:22:45;99284.66;;;19.38;58.06
20228;BME280;12195;55.790;37.572;2023-04-28T10:25:26;99295.67;;;19.70;56.75
20228;BME280;12195;55.790;37.572;2023-04-28T10:28:03;99285.05;;;19.43;57.88
20228;BME280;12195;55.790;37.572;2023-04-28T10:30:35;99285.22;;;19.41;57.73
20228;BME280;12195;55.790;37.572;2023-04-28T10:35:46;99289.60;;;19.33;58.43
20228;BME280;12195;55.790;37.572;2023-04-28T10:38:19;99294.27;;;19.21;58.92
20228;BME280;12195;55.790;37.572;2023-04-28T10:40:53;99288.42;;;19.08;60.02
20228;BME280;12195;55.790;37.572;2023-04-28T10:46:03;99298.34;;;18.79;58.95
20228;BME280;12195;55.790;37.572;2023-04-28T10:51:21;99309.23;;;18.11;61.02
20228;BME280;12195;55.790;37.572;2023-04-28T10:56:32;99315.66;;;17.31;65.16
20228;BME280;12195;55.790;37.572;2023-04-28T10:59:23;99319.97;;;16.83;67.08
20228;BME280;12195;55.790;37.572;2023-04-28T11:02:20;99317.20;;;16.44;68.88
20228;BME280;12195;55.790;37.572;2023-04-28T11:04:36;99316.90;;;16.06;70.19
20228;BME280;12195;55.790;37.572;2023-04-28T11:07:11;99309.42;;;15.79;71.86
20228;BME280;12195;55.790;37.572;2023-04-28T11:09:46;99319.14;;;15.47;75.60
20228;BME280;12195;55.790;37.572;2023-04-28T11:12:19;99319.14;;;15.47;75.60
20228;BME280;12195;55.790;37.572;2023-04-28T11:14:52;99317.34;;;15.47;76.58
20228;BME280;12195;55.790;37.572;2023-04-28T11:17:38;99316.47;;;15.58;76.28
20228;BME280;12195;55.790;37.572;2023-04-28T11:20:07;99319.22;;;15.67;75.64
20228;BME280;12195;55.790;37.572;2023-04-28T11:22:41;99317.39;;;15.68;74.77
20228;BME280;12195;55.790;37.572;2023-04-28T11:25:13;99318.88;;;15.61;75.85
20228;BME280;12195;55.790;37.572;2023-04-28T11:27:45;99319.53;;;15.42;76.80
20228;BME280;12195;55.790;37.572;2023-04-28T11:30:21;99319.53;;;15.42;76.80
20228;BME280;12195;55.790;37.572;2023-04-28T11:32:54;99317.48;;;15.35;76.78
20228;BME280;12195;55.790;37.572;2023-04-28T11:35:39;99320.13;;;15.35;76.43
20228;BME280;12195;55.790;37.572;2023-04-28T11:38:03;99322.76;;;15.46;77.94
20228;BME280;12195;55.790;37.572;2023-04-28T11:40:35;99325.39;;;15.57;78.54
20228;BME280;12195;55.790;37.572;2023-04-28T11:43:07;99324.28;;;15.70;77.76
20228;BME280;12195;55.790;37.572;2023-04-28T11:45:44;99320.59;;;15.82;76.94
20228;BME280;12195;55.790;37.572;2023-04-28T11:48:21;99321.02;;;15.98;75.90
20228;BME280;12195;55.790;37.572;2023-04-28T11:50:53;99320.93;;;16.21;76.56
20228;BME280;12195;55.790;37.572;2023-04-28T11:53:45;99319.91;;;16.53;76.78
20228;BME280;12195;55.790;37.572;2023-04-28T11:56:17;99319.34;;;17.00;75.78
20228;BME280;12195;55.790;37.572;2023-04-28T11:59:03;99315.34;;;17.64;73.95
20228;BME280;12195;55.790;37.572;2023-04-28T12:01:47;99311.04;;;18.01;71.60
20228;BME280;12195;55.790;37.572;2023-04-28T12:07:07;99310.63;;;18.25;67.56
20228;BME280;12195;55.790;37.572;2023-04-28T12:09:45;99308.97;;;18.14;67.41
20228;BME280;12195;55.790;37.572;2023-04-28T12:12:30;99309.36;;;17.91;67.67
20228;BME280;12195;55.790;37.572;2023-04-28T12:15:06;99315.08;;;17.67;67.63
20228;BME280;12195;55.790;37.572;2023-04-28T12:17:41;99317.92;;;17.36;65.74
20228;BME280;12195;55.790;37.572;2023-04-28T12:20:35;99312.50;;;17.07;67.01
20228;BME280;12195;55.790;37.572;2023-04-28T12:23:08;99298.20;;;16.59;67.89
20228;BME280;12195;55.790;37.572;2023-04-28T12:25:44;99298.20;;;16.59;67.89
20228;BME280;12195;55.790;37.572;2023-04-28T12:28:18;99315.47;;;16.54;68.15
20228;BME280;12195;55.790;37.572;2023-04-28T12:31:01;99315.17;;;16.36;70.92
20228;BME280;12195;55.790;37.572;2023-04-28T12:33:26;99310.91;;;16.24;71.10
20228;BME280;12195;55.790;37.572;2023-04-28T12:36:00;99318.41;;;16.19;72.15
20228;BME280;12195;55.790;37.572;2023-04-28T12:38:33;99318.78;;;16.15;71.97
20228;BME280;12195;55.790;37.572;2023-04-28T12:41:05;99324.72;;;16.07;72.32
20228;BME280;12195;55.790;37.572;2023-04-28T12:43:37;99309.27;;;15.92;73.44
20228;BME280;12195;55.790;37.572;2023-04-28T12:46:11;99318.37;;;15.98;74.05
20228;BME280;12195;55.790;37.572;2023-04-28T12:48:44;99318.37;;;15.98;73.27
20228;BME280;12195;55.790;37.572;2023-04-28T12:51:17;99313.27;;;16.07;72.69
20228;BME280;12195;55.790;37.572;2023-04-28T12:53:50;99316.41;;;16.12;73.00
20228;BME280;12195;55.790;37.572;2023-04-28T12:56:22;99323.45;;;16.22;74.12
20228;BME280;12195;55.790;37.572;2023-04-28T12:58:55;99321.95;;;16.29;72.50
20228;BME280;12195;55.790;37.572;2023-04-28T13:01:27;99319.78;;;16.34;72.02
20228;BME280;12195;55.790;37.572;2023-04-28T13:04:01;99317.13;;;16.34;71.28
20228;BME280;12195;55.790;37.572;2023-04-28T13:06:34;99322.43;;;16.34;70.32
20228;BME280;12195;55.790;37.572;2023-04-28T13:09:06;99313.88;;;16.31;69.30
20228;BME280;12195;55.790;37.572;2023-04-28T13:11:40;99315.42;;;16.33;69.35
20228;BME280;12195;55.790;37.572;2023-04-28T13:14:13;99323.25;;;16.35;68.47
20228;BME280;12195;55.790;37.572;2023-04-28T13:16:45;99323.13;;;16.36;67.64
20228;BME280;12195;55.790;37.572;2023-04-28T13:19:18;99320.72;;;16.33;66.44
20228;BME280;12195;55.790;37.572;2023-04-28T13:21:50;99313.80;;;16.21;66.55
20228;BME280;12195;55.790;37.572;2023-04-28T13:24:22;99318.00;;;16.24;66.15
20228;BME280;12195;55.790;37.572;2023-04-28T13:26:54;99325.83;;;16.25;66.96
20228;BME280;12195;55.790;37.572;2023-04-28T13:29:28;99334.75;;;16.24;65.96
20228;BME280;12195;55.790;37.572;2023-04-28T13:32:00;99333.90;;;16.24;66.25
20228;BME280;12195;55.790;37.572;2023-04-28T13:34:32;99348.40;;;16.20;66.74
20228;BME280;12195;55.790;37.572;2023-04-28T13:37:05;99349.26;;;16.09;65.81